Time;durP1;ratioP1;P1;durP2;ratioP2;P2;SDS_P1;SDS_P2;PMS_P1;PMS_P2;Temp;Humidity;BMP_temperature;BMP_pressure;BME280_temperature;BME280_humidity;BME280_pressure;Samples;Min_cycle;Max_cycle;Signal;HPM_P1;HPM_P2
2021/10/07 00:01:34;;;;;;;;;;;14.20;99.90;;;;;;5074701;28;19915;-77
2021/10/07 00:04:00;;;;;;;;;;;14.20;99.90;;;;;;5076473;28;19957;-78
2021/10/07 00:06:25;;;;;;;;;;;14.30;99.90;;;;;;5076774;28;19935;-78
2021/10/07 00:08:51;;;;;;;;;;;14.30;99.90;;;;;;5077427;28;19970;-78
2021/10/07 00:11:17;;;;;;;;;;;14.30;99.90;;;;;;5067938;28;19975;-78
2021/10/07 00:13:42;;;;;;;;;;;14.30;99.90;;;;;;5077877;28;19904;-78
2021/10/07 00:16:08;;;;;;;;;;;14.40;99.90;;;;;;5078282;28;19995;-78
2021/10/07 00:18:38;;;;;;;;;;;14.40;99.90;;;;;;5078039;28;19954;-78
2021/10/07 00:21:04;;;;;;;;;;;14.40;99.90;;;;;;5076312;28;19908;-77
2021/10/07 00:23:33;;;;;;;;;;;14.40;99.90;;;;;;5078281;28;19916;-77
2021/10/07 00:25:59;;;;;;;;;;;14.30;99.90;;;;;;5080187;28;19913;-77
2021/10/07 00:28:25;;;;;;;;;;;14.30;99.90;;;;;;5076576;28;19912;-78
2021/10/07 00:30:56;;;;;;;;;;;14.30;99.90;;;;;;5075729;28;19904;-77
2021/10/07 00:33:26;;;;;;;;;;;14.30;99.90;;;;;;5074852;28;19947;-78
2021/10/07 00:41:02;;;;;;;;;;;14.20;99.90;;;;;;5055727;28;19912;-78
2021/10/07 00:43:27;;;;;;;;;;;14.30;99.90;;;;;;5069302;28;19924;-77
2021/10/07 00:45:54;;;;;;;;;;;14.30;99.90;;;;;;5078642;28;19915;-78
2021/10/07 00:48:20;;;;;;;;;;;14.30;99.90;;;;;;5075579;28;19920;-78
2021/10/07 00:50:46;;;;;;;;;;;14.30;99.90;;;;;;5074496;28;19934;-77
2021/10/07 00:53:13;;;;;;;;;;;14.20;99.90;;;;;;5076910;28;20361;-77
2021/10/07 00:55:39;;;;;;;;;;;14.30;99.90;;;;;;5076186;28;19948;-77
2021/10/07 00:58:05;;;;;;;;;;;14.20;99.90;;;;;;5076169;28;19909;-77
2021/10/07 01:00:31;;;;;;;;;;;14.20;99.90;;;;;;5079760;28;19942;-77
2021/10/07 01:02:56;;;;;;;;;;;14.20;99.90;;;;;;5089424;28;20355;-78
2021/10/07 01:05:22;;;;;;;;;;;14.20;99.90;;;;;;5075948;28;19908;-78
2021/10/07 01:07:48;;;;;;;;;;;14.10;99.90;;;;;;5080029;28;19919;-78
2021/10/07 01:10:14;;;;;;;;;;;14.10;99.90;;;;;;5080467;28;19935;-78
2021/10/07 01:12:39;;;;;;;;;;;14.10;99.90;;;;;;5079709;28;19912;-77
2021/10/07 01:15:05;;;;;;;;;;;14.20;99.90;;;;;;5075393;28;19908;-78
2021/10/07 01:17:31;;;;;;;;;;;14.10;99.90;;;;;;5074341;28;19904;-78
2021/10/07 01:20:01;;;;;;;;;;;14.10;99.90;;;;;;5072250;28;19912;-78
2021/10/07 01:22:28;;;;;;;;;;;14.10;99.90;;;;;;5078337;28;20002;-78
2021/10/07 01:24:54;;;;;;;;;;;14.20;99.90;;;;;;5076676;28;21234;-77
2021/10/07 01:27:26;;;;;;;;;;;14.20;99.90;;;;;;5074922;28;19912;-78
2021/10/07 01:29:53;;;;;;;;;;;14.20;99.90;;;;;;5075015;28;19912;-78
2021/10/07 01:32:21;;;;;;;;;;;14.30;99.90;;;;;;5077137;28;20222;-77
2021/10/07 01:34:46;;;;;;;;;;;14.30;99.90;;;;;;5072797;28;19917;-78
2021/10/07 01:37:12;;;;;;;;;;;14.30;99.90;;;;;;5075464;28;19913;-78
2021/10/07 01:39:37;;;;;;;;;;;14.30;99.90;;;;;;5077074;28;19916;-78
2021/10/07 01:42:03;;;;;;;;;;;14.30;99.90;;;;;;5077671;28;19915;-77
2021/10/07 01:44:29;;;;;;;;;;;14.30;99.90;;;;;;5080407;28;19965;-78
2021/10/07 01:46:54;;;;;;;;;;;14.30;99.90;;;;;;5077102;28;20412;-77
2021/10/07 01:49:20;;;;;;;;;;;14.30;99.90;;;;;;5093646;28;19919;-77
2021/10/07 01:51:46;;;;;;;;;;;14.30;99.90;;;;;;5077026;28;19919;-78
2021/10/07 01:54:12;;;;;;;;;;;14.30;99.90;;;;;;5079220;28;19912;-77
2021/10/07 01:56:37;;;;;;;;;;;14.30;99.90;;;;;;5077186;28;20263;-78
2021/10/07 01:59:05;;;;;;;;;;;14.30;99.90;;;;;;5077667;28;19916;-77
2021/10/07 02:01:31;;;;;;;;;;;14.20;99.90;;;;;;5075140;28;19975;-77
2021/10/07 02:03:56;;;;;;;;;;;14.20;99.90;;;;;;5074137;28;19912;-78
2021/10/07 02:06:22;;;;;;;;;;;14.30;99.90;;;;;;5077180;28;19917;-77
2021/10/07 02:08:48;;;;;;;;;;;14.30;99.90;;;;;;5075104;28;19912;-77
2021/10/07 02:11:13;;;;;;;;;;;14.30;99.90;;;;;;5075702;28;20281;-78
2021/10/07 02:13:39;;;;;;;;;;;14.30;99.90;;;;;;5080785;28;19912;-79
2021/10/07 02:16:05;;;;;;;;;;;14.20;99.90;;;;;;5080740;28;19916;-77
2021/10/07 02:18:31;;;;;;;;;;;14.20;99.90;;;;;;5078456;28;19913;-78
2021/10/07 02:20:56;;;;;;;;;;;14.20;99.90;;;;;;5077322;28;19916;-78
2021/10/07 02:23:22;;;;;;;;;;;14.10;99.90;;;;;;5078497;28;20289;-77
2021/10/07 02:25:47;;;;;;;;;;;14.20;99.90;;;;;;5074046;28;19913;-78
2021/10/07 02:28:16;;;;;;;;;;;14.20;99.90;;;;;;5075503;28;19916;-77
2021/10/07 02:30:42;;;;;;;;;;;14.20;99.90;;;;;;5068222;28;19917;-79
2021/10/07 02:33:08;;;;;;;;;;;14.10;99.90;;;;;;5080538;28;19913;-78
2021/10/07 02:35:34;;;;;;;;;;;14.10;99.90;;;;;;5071927;28;19918;-79
2021/10/07 02:37:59;;;;;;;;;;;14.10;99.90;;;;;;5081889;28;20014;-77
2021/10/07 02:40:27;;;;;;;;;;;14.10;99.90;;;;;;5072082;28;19912;-78
2021/10/07 02:42:54;;;;;;;;;;;14.10;99.90;;;;;;5076580;28;20365;-78
2021/10/07 02:45:20;;;;;;;;;;;14.20;99.90;;;;;;5074867;28;19959;-78
2021/10/07 02:47:46;;;;;;;;;;;14.20;99.90;;;;;;5079630;28;20358;-78
2021/10/07 02:50:13;;;;;;;;;;;14.20;99.90;;;;;;5069512;28;20001;-77
2021/10/07 02:52:38;;;;;;;;;;;14.20;99.90;;;;;;5075716;28;19943;-77
2021/10/07 02:55:04;;;;;;;;;;;14.10;99.90;;;;;;5074302;28;19983;-77
2021/10/07 02:57:30;;;;;;;;;;;14.10;99.90;;;;;;5077975;28;19916;-77
2021/10/07 02:59:55;;;;;;;;;;;14.10;99.90;;;;;;5074967;28;19915;-77
2021/10/07 03:02:21;;;;;;;;;;;14.10;99.90;;;;;;5072547;28;19913;-77
2021/10/07 03:04:49;;;;;;;;;;;14.20;99.90;;;;;;5076494;28;19912;-77
2021/10/07 03:07:14;;;;;;;;;;;14.20;99.90;;;;;;5085117;28;19916;-78
2021/10/07 03:09:40;;;;;;;;;;;14.20;99.90;;;;;;5081087;28;19951;-78
2021/10/07 03:12:06;;;;;;;;;;;14.20;99.90;;;;;;5078643;28;19909;-78
2021/10/07 03:14:32;;;;;;;;;;;14.20;99.90;;;;;;5082207;28;20342;-78
2021/10/07 03:16:58;;;;;;;;;;;14.20;99.90;;;;;;5076707;28;19913;-78
2021/10/07 03:19:24;;;;;;;;;;;14.20;99.90;;;;;;5082204;28;19912;-77
2021/10/07 03:21:49;;;;;;;;;;;14.20;99.90;;;;;;5076449;28;20014;-79
2021/10/07 03:24:15;;;;;;;;;;;14.20;99.90;;;;;;5077920;28;20346;-77
2021/10/07 03:26:41;;;;;;;;;;;14.20;99.90;;;;;;5077100;28;19909;-78
2021/10/07 03:29:06;;;;;;;;;;;14.20;99.90;;;;;;5078300;28;19927;-78
2021/10/07 03:31:32;;;;;;;;;;;14.20;99.90;;;;;;5078912;28;20003;-77
2021/10/07 03:33:58;;;;;;;;;;;14.20;99.90;;;;;;5082514;28;19923;-80
2021/10/07 03:36:23;;;;;;;;;;;14.20;99.90;;;;;;5076303;28;19965;-78
2021/10/07 03:38:49;;;;;;;;;;;14.10;99.90;;;;;;5074368;28;19912;-78
2021/10/07 03:41:15;;;;;;;;;;;14.10;99.90;;;;;;5079671;28;19915;-77
2021/10/07 03:43:41;;;;;;;;;;;14.20;99.90;;;;;;5080301;28;19936;-78
2021/10/07 03:46:06;;;;;;;;;;;14.20;99.90;;;;;;5075772;28;19909;-78
2021/10/07 03:48:32;;;;;;;;;;;14.20;99.90;;;;;;5077693;28;19923;-78
2021/10/07 03:50:58;;;;;;;;;;;14.20;99.90;;;;;;5081052;28;20011;-78
2021/10/07 03:53:25;;;;;;;;;;;14.20;99.90;;;;;;5077872;28;20400;-77
2021/10/07 03:55:51;;;;;;;;;;;14.20;99.90;;;;;;5084379;28;19912;-78
2021/10/07 03:58:16;;;;;;;;;;;14.20;99.90;;;;;;5079335;28;19913;-78
2021/10/07 04:00:42;;;;;;;;;;;14.20;99.90;;;;;;5079141;28;19918;-78
2021/10/07 04:03:08;;;;;;;;;;;14.20;99.90;;;;;;5075617;28;19953;-78
2021/10/07 04:05:34;;;;;;;;;;;14.30;99.90;;;;;;5074843;28;20417;-78
2021/10/07 04:08:00;;;;;;;;;;;14.20;99.90;;;;;;5079608;28;19940;-77
2021/10/07 04:10:25;;;;;;;;;;;14.30;99.90;;;;;;5091700;28;20370;-77
2021/10/07 04:12:51;;;;;;;;;;;14.30;99.90;;;;;;5092823;28;19919;-77
2021/10/07 04:15:17;;;;;;;;;;;14.30;99.90;;;;;;5081427;28;19916;-78
2021/10/07 04:17:43;;;;;;;;;;;14.30;99.90;;;;;;5078052;28;19973;-77
2021/10/07 04:20:09;;;;;;;;;;;14.30;99.90;;;;;;5082639;28;19924;-77
2021/10/07 04:22:34;;;;;;;;;;;14.30;99.90;;;;;;5092851;28;19912;-77
2021/10/07 04:25:00;;;;;;;;;;;14.30;99.90;;;;;;5076881;28;19921;-77
2021/10/07 04:27:26;;;;;;;;;;;14.30;99.90;;;;;;5073968;28;19970;-77
2021/10/07 04:29:51;;;;;;;;;;;14.40;99.90;;;;;;5078792;28;19912;-77
2021/10/07 04:32:17;;;;;;;;;;;14.40;99.90;;;;;;5081920;28;19996;-77
2021/10/07 04:34:43;;;;;;;;;;;14.40;99.90;;;;;;5081534;28;19924;-77
2021/10/07 04:37:08;;;;;;;;;;;14.40;99.90;;;;;;5087040;28;19924;-77
2021/10/07 04:39:34;;;;;;;;;;;14.40;99.90;;;;;;5093390;28;19979;-77
2021/10/07 04:41:59;;;;;;;;;;;14.50;99.90;;;;;;5088751;28;19948;-77
2021/10/07 04:44:25;;;;;;;;;;;14.50;99.90;;;;;;5089975;28;19913;-77
2021/10/07 04:46:51;;;;;;;;;;;14.50;99.90;;;;;;5093124;28;19916;-77
2021/10/07 04:49:17;;;;;;;;;;;14.50;99.90;;;;;;5087101;28;19913;-77
2021/10/07 04:51:42;;;;;;;;;;;14.50;99.90;;;;;;5088736;28;19896;-77
2021/10/07 04:54:08;;;;;;;;;;;14.50;99.90;;;;;;5095324;28;19912;-77
2021/10/07 04:56:34;;;;;;;;;;;14.60;99.90;;;;;;5086974;28;19912;-77
2021/10/07 04:58:59;;;;;;;;;;;14.60;99.90;;;;;;5074553;28;20389;-78
2021/10/07 05:01:25;;;;;;;;;;;14.60;99.90;;;;;;5080752;28;19912;-77
2021/10/07 05:03:51;;;;;;;;;;;14.50;99.90;;;;;;5078498;28;19931;-77
2021/10/07 05:06:17;;;;;;;;;;;14.50;99.90;;;;;;5083986;28;19912;-78
2021/10/07 05:08:43;;;;;;;;;;;14.50;99.90;;;;;;5074873;28;19917;-78
2021/10/07 05:11:08;;;;;;;;;;;14.50;99.90;;;;;;5076013;28;19991;-77
2021/10/07 05:13:34;;;;;;;;;;;14.50;99.90;;;;;;5072177;28;19924;-77
2021/10/07 05:16:00;;;;;;;;;;;14.50;99.90;;;;;;5074957;28;19912;-77
2021/10/07 05:18:25;;;;;;;;;;;14.50;99.90;;;;;;5078011;28;20277;-77
2021/10/07 05:20:53;;;;;;;;;;;14.60;99.90;;;;;;5074324;28;19992;-77
2021/10/07 05:23:19;;;;;;;;;;;14.60;99.90;;;;;;5072688;28;19916;-77
2021/10/07 05:25:44;;;;;;;;;;;14.60;99.90;;;;;;5069906;28;19923;-77
2021/10/07 05:28:10;;;;;;;;;;;14.60;99.90;;;;;;5057283;28;19927;-77
2021/10/07 05:30:35;;;;;;;;;;;14.60;99.90;;;;;;5071798;28;19919;-77
2021/10/07 05:33:01;;;;;;;;;;;14.60;99.90;;;;;;5070775;28;19912;-78
2021/10/07 05:35:27;;;;;;;;;;;14.50;99.90;;;;;;5074124;28;19913;-77
2021/10/07 05:37:52;;;;;;;;;;;14.50;99.90;;;;;;5073920;28;20310;-77
2021/10/07 05:40:18;;;;;;;;;;;14.60;99.90;;;;;;5073187;28;19912;-78
2021/10/07 05:42:44;;;;;;;;;;;14.60;99.90;;;;;;5072916;28;19913;-77
2021/10/07 05:45:10;;;;;;;;;;;14.60;99.90;;;;;;5075492;28;19912;-77
2021/10/07 05:47:37;;;;;;;;;;;14.60;99.90;;;;;;5070256;28;19917;-77
2021/10/07 05:50:03;;;;;;;;;;;14.60;99.90;;;;;;5072873;28;19916;-77
2021/10/07 05:52:29;;;;;;;;;;;14.60;99.90;;;;;;5070498;28;19919;-77
2021/10/07 05:54:55;;;;;;;;;;;14.60;99.90;;;;;;5073192;28;19908;-77
2021/10/07 05:57:20;;;;;;;;;;;14.60;99.90;;;;;;5074601;28;20384;-78
2021/10/07 05:59:46;;;;;;;;;;;14.70;99.90;;;;;;5070652;28;19980;-77
2021/10/07 06:02:11;;;;;;;;;;;14.70;99.90;;;;;;5054184;28;20017;-77
2021/10/07 06:04:37;;;;;;;;;;;14.70;99.90;;;;;;5054990;28;19913;-78
2021/10/07 06:07:03;;;;;;;;;;;14.70;99.90;;;;;;5066860;28;19913;-77
2021/10/07 06:09:29;;;;;;;;;;;14.70;99.90;;;;;;5071725;28;19913;-78
2021/10/07 06:11:54;;;;;;;;;;;14.70;99.90;;;;;;5075514;28;19935;-77
2021/10/07 06:14:20;;;;;;;;;;;14.70;99.90;;;;;;5073619;28;19912;-78
2021/10/07 06:16:47;;;;;;;;;;;14.70;99.90;;;;;;5063168;28;19978;-78
2021/10/07 06:19:16;;;;;;;;;;;14.70;99.90;;;;;;5060012;28;19913;-78
2021/10/07 06:21:41;;;;;;;;;;;14.70;99.90;;;;;;5071285;28;19916;-78
2021/10/07 06:24:07;;;;;;;;;;;14.70;99.90;;;;;;5064425;28;19917;-78
2021/10/07 06:26:33;;;;;;;;;;;14.70;99.90;;;;;;5055089;28;19916;-77
2021/10/07 06:28:58;;;;;;;;;;;14.70;99.90;;;;;;5071249;28;19916;-81
2021/10/07 06:31:24;;;;;;;;;;;14.80;99.90;;;;;;5075083;28;20384;-77
2021/10/07 06:33:50;;;;;;;;;;;14.80;99.90;;;;;;5075138;28;20369;-78
2021/10/07 06:36:16;;;;;;;;;;;14.80;99.90;;;;;;5070281;28;20440;-78
2021/10/07 06:38:42;;;;;;;;;;;14.80;99.90;;;;;;5054763;28;20452;-78
2021/10/07 06:41:08;;;;;;;;;;;14.90;99.90;;;;;;5058585;28;19936;-78
2021/10/07 06:43:33;;;;;;;;;;;14.90;99.90;;;;;;5067593;28;20373;-77
2021/10/07 06:45:59;;;;;;;;;;;14.90;99.90;;;;;;5069976;28;19920;-77
2021/10/07 06:48:24;;;;;;;;;;;15.00;99.90;;;;;;5059052;28;19913;-78
2021/10/07 06:50:50;;;;;;;;;;;15.00;99.90;;;;;;5078193;28;19908;-78
2021/10/07 06:53:17;;;;;;;;;;;15.00;99.90;;;;;;5079476;28;19912;-78
2021/10/07 06:55:43;;;;;;;;;;;15.00;99.90;;;;;;5078187;28;19989;-77
2021/10/07 06:58:09;;;;;;;;;;;15.00;99.90;;;;;;5078299;28;19951;-77
2021/10/07 07:00:35;;;;;;;;;;;15.10;99.90;;;;;;5076593;28;19919;-77
2021/10/07 07:03:01;;;;;;;;;;;15.10;99.90;;;;;;5063149;28;19916;-77
2021/10/07 07:05:27;;;;;;;;;;;15.20;99.90;;;;;;5067958;28;19920;-78
2021/10/07 07:07:53;;;;;;;;;;;15.10;99.90;;;;;;5072399;28;19927;-77
2021/10/07 07:10:19;;;;;;;;;;;15.20;99.90;;;;;;5063023;28;19915;-75
2021/10/07 07:12:45;;;;;;;;;;;15.20;99.90;;;;;;5075084;28;19916;-74
2021/10/07 07:15:11;;;;;;;;;;;15.20;99.90;;;;;;5074843;28;19912;-75
2021/10/07 07:17:37;;;;;;;;;;;15.30;99.90;;;;;;5074604;28;20409;-76
2021/10/07 07:20:03;;;;;;;;;;;15.30;99.90;;;;;;5076908;28;19909;-74
2021/10/07 07:22:28;;;;;;;;;;;15.40;99.90;;;;;;5076441;28;20003;-74
2021/10/07 07:24:55;;;;;;;;;;;15.40;99.90;;;;;;5076445;28;19913;-75
2021/10/07 07:27:21;;;;;;;;;;;15.40;99.90;;;;;;5075610;28;20011;-74
2021/10/07 07:29:47;;;;;;;;;;;15.40;99.90;;;;;;5075829;28;19956;-75
2021/10/07 07:32:12;;;;;;;;;;;15.40;99.90;;;;;;5063359;28;19966;-75
2021/10/07 07:34:38;;;;;;;;;;;15.40;99.90;;;;;;5056552;28;19909;-75
2021/10/07 07:37:04;;;;;;;;;;;15.50;99.90;;;;;;5055968;28;19913;-76
2021/10/07 07:39:29;;;;;;;;;;;15.50;99.90;;;;;;5056254;28;19993;-75
2021/10/07 07:41:55;;;;;;;;;;;15.50;99.90;;;;;;5065107;28;20449;-75
2021/10/07 07:44:21;;;;;;;;;;;15.50;99.90;;;;;;5075825;28;20521;-75
2021/10/07 07:46:46;;;;;;;;;;;15.60;99.90;;;;;;5072926;28;19919;-74
2021/10/07 07:49:12;;;;;;;;;;;15.50;99.90;;;;;;5075554;28;19909;-75
2021/10/07 07:51:38;;;;;;;;;;;15.50;99.90;;;;;;5074902;28;19912;-74
2021/10/07 07:54:03;;;;;;;;;;;15.50;99.90;;;;;;5076264;28;19934;-75
2021/10/07 07:56:29;;;;;;;;;;;15.60;99.90;;;;;;5076215;28;19908;-75
2021/10/07 07:58:55;;;;;;;;;;;15.60;99.90;;;;;;5068717;28;20003;-73
2021/10/07 08:01:21;;;;;;;;;;;15.60;99.90;;;;;;5076373;28;19915;-72
2021/10/07 08:03:47;;;;;;;;;;;15.60;99.90;;;;;;5072513;28;19917;-72
2021/10/07 08:06:13;;;;;;;;;;;15.60;99.90;;;;;;5077097;28;19915;-73
2021/10/07 08:08:38;;;;;;;;;;;15.70;99.90;;;;;;5068117;28;20380;-73
2021/10/07 08:11:04;;;;;;;;;;;15.60;99.90;;;;;;5056732;28;19908;-75
2021/10/07 08:13:29;;;;;;;;;;;15.70;99.90;;;;;;5057331;28;19913;-73
2021/10/07 08:15:55;;;;;;;;;;;15.70;99.90;;;;;;5058115;28;21610;-73
2021/10/07 08:18:21;;;;;;;;;;;15.70;99.90;;;;;;5075314;28;19965;-73
2021/10/07 08:20:47;;;;;;;;;;;15.70;99.90;;;;;;5076971;28;19909;-73
2021/10/07 08:23:13;;;;;;;;;;;15.80;99.90;;;;;;5077234;28;19917;-75
2021/10/07 08:25:40;;;;;;;;;;;15.90;99.90;;;;;;5075609;28;19942;-75
2021/10/07 08:28:06;;;;;;;;;;;15.90;99.90;;;;;;5065725;28;19920;-74
2021/10/07 08:30:32;;;;;;;;;;;15.90;99.90;;;;;;5065803;28;19913;-74
2021/10/07 08:32:58;;;;;;;;;;;15.90;99.90;;;;;;5074497;28;20007;-76
2021/10/07 08:35:24;;;;;;;;;;;15.80;99.90;;;;;;5069391;28;19947;-74
2021/10/07 08:37:49;;;;;;;;;;;15.80;99.90;;;;;;5068687;28;20047;-74
2021/10/07 08:40:15;;;;;;;;;;;15.80;99.90;;;;;;5055302;28;19908;-74
2021/10/07 08:42:41;;;;;;;;;;;15.60;99.90;;;;;;5069720;28;19959;-74
2021/10/07 08:45:08;;;;;;;;;;;15.50;99.90;;;;;;5074515;28;20012;-73
2021/10/07 08:47:45;;;;;;;;;;;15.50;99.90;;;;;;5074437;28;20421;-74
2021/10/07 08:50:11;;;;;;;;;;;15.40;99.90;;;;;;5074987;28;19963;-74
2021/10/07 08:52:40;;;;;;;;;;;15.30;99.90;;;;;;5079239;28;19985;-73
2021/10/07 08:55:06;;;;;;;;;;;15.30;99.90;;;;;;5078765;28;19908;-74
2021/10/07 08:57:33;;;;;;;;;;;15.10;99.90;;;;;;5063047;28;20053;-74
2021/10/07 08:59:59;;;;;;;;;;;15.10;99.90;;;;;;5073354;28;19920;-74
2021/10/07 09:02:25;;;;;;;;;;;15.00;99.90;;;;;;5074905;28;19962;-75
2021/10/07 09:04:52;;;;;;;;;;;15.10;99.90;;;;;;5074813;28;19908;-73
2021/10/07 09:07:18;;;;;;;;;;;15.10;99.90;;;;;;5073855;28;20308;-74
2021/10/07 09:09:44;;;;;;;;;;;15.10;99.90;;;;;;5074917;28;19908;-74
2021/10/07 09:12:14;;;;;;;;;;;15.10;99.90;;;;;;5063051;28;19916;-74
2021/10/07 09:14:41;;;;;;;;;;;15.10;99.90;;;;;;5073458;28;19924;-73
2021/10/07 09:17:08;;;;;;;;;;;15.00;99.90;;;;;;5069965;28;19943;-74
2021/10/07 09:19:40;;;;;;;;;;;15.00;99.90;;;;;;5071645;28;19908;-73
2021/10/07 09:22:22;;;;;;;;;;;15.00;99.90;;;;;;5072677;28;20002;-74
2021/10/07 09:24:55;;;;;;;;;;;15.00;99.90;;;;;;5068020;28;19947;-77
2021/10/07 09:27:25;;;;;;;;;;;15.00;99.90;;;;;;5071268;28;19912;-73
2021/10/07 09:29:58;;;;;;;;;;;15.00;99.90;;;;;;5075569;28;20648;-74
2021/10/07 09:32:29;;;;;;;;;;;15.10;99.90;;;;;;5074736;28;19908;-75
2021/10/07 09:34:56;;;;;;;;;;;15.10;99.90;;;;;;5075019;28;20003;-75
2021/10/07 09:37:32;;;;;;;;;;;15.10;99.90;;;;;;5073929;28;19909;-76
2021/10/07 09:40:03;;;;;;;;;;;15.00;99.90;;;;;;5073846;28;19923;-76
2021/10/07 09:42:31;;;;;;;;;;;14.90;99.90;;;;;;5056686;28;19909;-74
2021/10/07 09:45:01;;;;;;;;;;;14.90;99.90;;;;;;5071204;28;19909;-80
2021/10/07 09:47:27;;;;;;;;;;;15.00;99.90;;;;;;5071015;28;19913;-74
2021/10/07 09:50:05;;;;;;;;;;;15.00;99.90;;;;;;5053997;28;19995;-75
2021/10/07 09:52:35;;;;;;;;;;;15.00;99.90;;;;;;5071533;28;19913;-74
2021/10/07 09:55:06;;;;;;;;;;;15.00;99.90;;;;;;5073664;28;20263;-75
2021/10/07 09:57:32;;;;;;;;;;;15.10;99.90;;;;;;5069479;28;19960;-76
2021/10/07 09:59:58;;;;;;;;;;;15.20;99.90;;;;;;5074062;28;19919;-74
2021/10/07 10:02:24;;;;;;;;;;;15.40;99.90;;;;;;5073718;28;20390;-75
2021/10/07 10:04:54;;;;;;;;;;;15.50;99.90;;;;;;5074175;28;19913;-75
2021/10/07 10:07:22;;;;;;;;;;;15.60;99.90;;;;;;5073643;28;19927;-75
2021/10/07 10:09:48;;;;;;;;;;;15.70;99.90;;;;;;5074388;28;20361;-75
2021/10/07 10:12:14;;;;;;;;;;;15.80;99.90;;;;;;5071800;28;19912;-75
2021/10/07 10:14:40;;;;;;;;;;;15.90;99.90;;;;;;5073557;28;19912;-76
2021/10/07 10:17:06;;;;;;;;;;;15.90;99.90;;;;;;5072831;28;19912;-74
2021/10/07 10:19:32;;;;;;;;;;;16.00;99.90;;;;;;5074093;28;19954;-73
2021/10/07 10:21:59;;;;;;;;;;;16.00;99.90;;;;;;5073070;28;19915;-76
2021/10/07 10:24:25;;;;;;;;;;;16.00;99.90;;;;;;5072662;28;19960;-75
2021/10/07 10:27:01;;;;;;;;;;;16.00;99.90;;;;;;5073408;28;19931;-74
2021/10/07 10:29:30;;;;;;;;;;;15.90;99.90;;;;;;5074328;28;19909;-74
2021/10/07 10:31:56;;;;;;;;;;;15.90;99.90;;;;;;5071484;28;19924;-75
2021/10/07 10:34:22;;;;;;;;;;;15.90;99.90;;;;;;5073987;28;19908;-74
2021/10/07 10:36:53;;;;;;;;;;;15.90;99.90;;;;;;5072624;28;19989;-75
2021/10/07 10:39:26;;;;;;;;;;;15.90;99.90;;;;;;5073371;28;19909;-74
2021/10/07 10:41:55;;;;;;;;;;;15.90;99.90;;;;;;5072062;28;19931;-74
2021/10/07 10:44:27;;;;;;;;;;;15.90;99.90;;;;;;5072485;28;19916;-74
2021/10/07 10:47:08;;;;;;;;;;;16.00;99.90;;;;;;5073276;28;19920;-74
2021/10/07 10:49:36;;;;;;;;;;;16.00;99.90;;;;;;5068751;28;19934;-74
2021/10/07 10:52:22;;;;;;;;;;;16.10;99.90;;;;;;5082066;28;19920;-74
2021/10/07 10:54:50;;;;;;;;;;;16.20;99.90;;;;;;5073254;28;19943;-74
2021/10/07 10:57:24;;;;;;;;;;;16.30;99.90;;;;;;5060081;28;20377;-74
2021/10/07 11:00:01;;;;;;;;;;;16.30;99.90;;;;;;5053384;28;19923;-76
2021/10/07 11:02:27;;;;;;;;;;;16.30;99.90;;;;;;5067840;28;19913;-75
2021/10/07 11:04:53;;;;;;;;;;;16.40;99.90;;;;;;5062418;28;20011;-74
2021/10/07 11:07:20;;;;;;;;;;;16.30;99.90;;;;;;5068705;28;19916;-75
2021/10/07 11:09:57;;;;;;;;;;;16.30;99.90;;;;;;5080223;28;20377;-74
2021/10/07 11:12:23;;;;;;;;;;;16.30;99.90;;;;;;5079487;28;19974;-75
2021/10/07 11:14:52;;;;;;;;;;;16.20;99.90;;;;;;5071462;28;19993;-78
2021/10/07 11:17:18;;;;;;;;;;;16.20;99.90;;;;;;5073465;28;19931;-77
2021/10/07 11:19:45;;;;;;;;;;;16.20;99.90;;;;;;5073075;28;19915;-74
2021/10/07 11:22:11;;;;;;;;;;;16.10;99.90;;;;;;5072221;28;19908;-75
2021/10/07 11:24:47;;;;;;;;;;;16.00;99.90;;;;;;5068584;28;19962;-78
2021/10/07 11:27:12;;;;;;;;;;;15.90;99.90;;;;;;5075525;28;20015;-76
2021/10/07 11:29:38;;;;;;;;;;;15.90;99.90;;;;;;5077032;28;19962;-75
2021/10/07 11:32:04;;;;;;;;;;;15.90;99.90;;;;;;5077009;28;19976;-75
2021/10/07 11:34:30;;;;;;;;;;;15.90;99.90;;;;;;5073627;28;19985;-76
2021/10/07 11:36:55;;;;;;;;;;;15.80;99.90;;;;;;5077250;28;19948;-75
2021/10/07 11:39:21;;;;;;;;;;;15.90;99.90;;;;;;5074337;28;19912;-75
2021/10/07 11:41:47;;;;;;;;;;;15.90;99.90;;;;;;5073131;28;19928;-75
2021/10/07 11:44:13;;;;;;;;;;;15.80;99.90;;;;;;5075432;28;19908;-74
2021/10/07 11:46:38;;;;;;;;;;;15.90;99.90;;;;;;5075912;28;19936;-74
2021/10/07 11:49:05;;;;;;;;;;;15.90;99.90;;;;;;5076008;28;19980;-74
2021/10/07 11:51:32;;;;;;;;;;;15.90;99.90;;;;;;5076420;28;19927;-74
2021/10/07 11:54:07;;;;;;;;;;;15.90;99.90;;;;;;5076176;28;19951;-74
2021/10/07 11:56:36;;;;;;;;;;;15.90;99.90;;;;;;5074270;28;20380;-73
2021/10/07 11:59:06;;;;;;;;;;;16.00;99.90;;;;;;5055476;28;19963;-74
2021/10/07 12:01:33;;;;;;;;;;;16.00;99.90;;;;;;5055396;28;19955;-73
2021/10/07 12:04:00;;;;;;;;;;;16.10;99.90;;;;;;5070990;28;19913;-75
2021/10/07 12:06:26;;;;;;;;;;;16.10;99.90;;;;;;5075969;28;19909;-75
2021/10/07 12:08:52;;;;;;;;;;;16.10;99.90;;;;;;5075720;28;19913;-75
2021/10/07 12:11:19;;;;;;;;;;;16.10;99.90;;;;;;5075659;28;19918;-75
2021/10/07 12:13:50;;;;;;;;;;;16.10;99.90;;;;;;5072326;28;19915;-74
2021/10/07 12:16:17;;;;;;;;;;;16.10;99.90;;;;;;5055835;28;19913;-74
2021/10/07 12:18:49;;;;;;;;;;;16.10;99.90;;;;;;5055847;28;19916;-75
2021/10/07 12:21:25;;;;;;;;;;;16.10;99.90;;;;;;5055932;28;19915;-75
2021/10/07 12:23:55;;;;;;;;;;;16.00;99.90;;;;;;5056001;28;19925;-75
2021/10/07 12:26:38;;;;;;;;;;;16.00;99.90;;;;;;5065675;28;19916;-75
2021/10/07 12:29:18;;;;;;;;;;;15.90;99.90;;;;;;5072395;28;19924;-76
2021/10/07 12:31:47;;;;;;;;;;;15.90;99.90;;;;;;5073269;28;19927;-74
2021/10/07 12:34:13;;;;;;;;;;;15.80;99.90;;;;;;5075820;28;19954;-75
2021/10/07 12:36:39;;;;;;;;;;;15.70;99.90;;;;;;5075113;28;19908;-75
2021/10/07 12:39:06;;;;;;;;;;;15.60;99.90;;;;;;5075762;28;19915;-74
2021/10/07 12:41:32;;;;;;;;;;;15.50;99.90;;;;;;5075868;28;19908;-76
2021/10/07 12:43:58;;;;;;;;;;;15.60;99.90;;;;;;5075536;28;20007;-75
2021/10/07 12:46:25;;;;;;;;;;;15.70;99.90;;;;;;5075959;28;19916;-77
2021/10/07 12:48:50;;;;;;;;;;;15.70;99.90;;;;;;5062892;28;19932;-74
2021/10/07 12:51:17;;;;;;;;;;;15.90;99.90;;;;;;5055322;28;19909;-75
2021/10/07 12:53:44;;;;;;;;;;;15.70;99.90;;;;;;5058150;28;19919;-75
2021/10/07 12:56:11;;;;;;;;;;;15.40;99.90;;;;;;5075991;28;19951;-75
2021/10/07 12:58:44;;;;;;;;;;;15.10;99.90;;;;;;5075261;28;19908;-76
2021/10/07 13:01:11;;;;;;;;;;;15.00;99.90;;;;;;5068393;28;20398;-77
2021/10/07 13:03:36;;;;;;;;;;;15.00;99.90;;;;;;5079412;28;20378;-76
2021/10/07 13:06:02;;;;;;;;;;;15.00;99.90;;;;;;5075806;28;19934;-76
2021/10/07 13:08:28;;;;;;;;;;;15.10;99.90;;;;;;5074073;28;20009;-75
2021/10/07 13:10:53;;;;;;;;;;;15.10;99.90;;;;;;5079127;28;19920;-75
2021/10/07 13:13:19;;;;;;;;;;;15.20;99.90;;;;;;5072620;28;19919;-74
2021/10/07 13:15:45;;;;;;;;;;;15.20;99.90;;;;;;5073231;28;20346;-76
2021/10/07 13:18:11;;;;;;;;;;;15.30;99.90;;;;;;5075535;28;19920;-74
2021/10/07 13:20:37;;;;;;;;;;;15.30;99.90;;;;;;5057772;28;19931;-74
2021/10/07 13:23:03;;;;;;;;;;;15.50;99.90;;;;;;5055276;28;19912;-75
2021/10/07 13:25:37;;;;;;;;;;;15.50;99.90;;;;;;5068738;28;19912;-75
2021/10/07 13:28:03;;;;;;;;;;;15.50;99.90;;;;;;5076116;28;19928;-75
2021/10/07 13:30:29;;;;;;;;;;;15.50;99.90;;;;;;5073832;28;19919;-75
2021/10/07 13:32:55;;;;;;;;;;;15.60;99.90;;;;;;5074918;28;19962;-75
2021/10/07 13:35:25;;;;;;;;;;;15.60;99.90;;;;;;5067570;28;19912;-74
2021/10/07 13:37:52;;;;;;;;;;;15.60;99.90;;;;;;5073885;28;19919;-76
2021/10/07 13:40:18;;;;;;;;;;;15.60;99.90;;;;;;5073816;28;19935;-76
2021/10/07 13:42:44;;;;;;;;;;;15.60;99.90;;;;;;5072367;28;20395;-76
2021/10/07 13:45:10;;;;;;;;;;;15.50;99.90;;;;;;5062860;28;19916;-74
2021/10/07 13:47:37;;;;;;;;;;;15.60;99.90;;;;;;5088242;28;20011;-75
2021/10/07 13:50:02;;;;;;;;;;;15.50;99.90;;;;;;5070541;28;19912;-75
2021/10/07 13:52:28;;;;;;;;;;;15.50;99.90;;;;;;5072547;28;19912;-75
2021/10/07 13:54:54;;;;;;;;;;;15.40;99.90;;;;;;5073987;28;20369;-77
2021/10/07 13:57:20;;;;;;;;;;;15.50;99.90;;;;;;5058701;28;19919;-76
2021/10/07 13:59:46;;;;;;;;;;;15.50;99.90;;;;;;5070814;28;19916;-75
2021/10/07 14:02:12;;;;;;;;;;;15.50;99.90;;;;;;5070264;28;19912;-75
2021/10/07 14:04:37;;;;;;;;;;;15.50;99.90;;;;;;5074431;28;20251;-76
2021/10/07 14:07:03;;;;;;;;;;;15.50;99.90;;;;;;5073823;28;19983;-76
2021/10/07 14:09:29;;;;;;;;;;;15.40;99.90;;;;;;5079713;28;19912;-76
2021/10/07 14:11:55;;;;;;;;;;;15.40;99.90;;;;;;5091984;28;19948;-76
2021/10/07 14:14:20;;;;;;;;;;;15.30;99.90;;;;;;5066098;28;19921;-77
2021/10/07 14:16:46;;;;;;;;;;;15.20;99.90;;;;;;5069127;28;19912;-77
2021/10/07 14:19:12;;;;;;;;;;;15.30;99.90;;;;;;5076879;28;19913;-77